sensor_id;sensor_type;location;lat;lon;timestamp;temperature;humidity
35970;DHT22;22448;51.298;6.430;2023-08-17T00:00:03;17.60;99.90
35970;DHT22;22448;51.298;6.430;2023-08-17T00:02:32;17.60;99.90
35970;DHT22;22448;51.298;6.430;2023-08-17T00:04:59;17.60;99.90
35970;DHT22;22448;51.298;6.430;2023-08-17T00:07:26;17.60;99.90
35970;DHT22;22448;51.298;6.430;2023-08-17T00:09:54;17.60;99.90
35970;DHT22;22448;51.298;6.430;2023-08-17T00:12:21;17.60;99.90
35970;DHT22;22448;51.298;6.430;2023-08-17T00:14:48;17.60;99.90
35970;DHT22;22448;51.298;6.430;2023-08-17T00:17:15;17.60;99.90
35970;DHT22;22448;51.298;6.430;2023-08-17T00:19:43;17.60;99.90
35970;DHT22;22448;51.298;6.430;2023-08-17T00:22:10;17.60;99.90
35970;DHT22;22448;51.298;6.430;2023-08-17T00:24:37;17.60;99.90
35970;DHT22;22448;51.298;6.430;2023-08-17T00:27:04;17.50;99.90
35970;DHT22;22448;51.298;6.430;2023-08-17T00:29:31;17.50;99.90
35970;DHT22;22448;51.298;6.430;2023-08-17T00:31:58;17.40;99.90
35970;DHT22;22448;51.298;6.430;2023-08-17T00:34:25;17.40;99.90
35970;DHT22;22448;51.298;6.430;2023-08-17T00:36:52;17.40;99.90
35970;DHT22;22448;51.298;6.430;2023-08-17T00:39:19;17.30;99.90
35970;DHT22;22448;51.298;6.430;2023-08-17T00:41:46;17.30;99.90
35970;DHT22;22448;51.298;6.430;2023-08-17T00:44:14;17.30;99.90
35970;DHT22;22448;51.298;6.430;2023-08-17T00:46:41;17.30;99.90
35970;DHT22;22448;51.298;6.430;2023-08-17T00:49:08;17.30;99.90
35970;DHT22;22448;51.298;6.430;2023-08-17T00:51:37;17.20;99.90
35970;DHT22;22448;51.298;6.430;2023-08-17T00:54:05;17.20;99.90
35970;DHT22;22448;51.298;6.430;2023-08-17T00:56:32;17.20;99.90
35970;DHT22;22448;51.298;6.430;2023-08-17T00:58:59;17.20;99.90
35970;DHT22;22448;51.298;6.430;2023-08-17T01:01:26;17.20;99.90
35970;DHT22;22448;51.298;6.430;2023-08-17T01:03:53;17.20;99.90
35970;DHT22;22448;51.298;6.430;2023-08-17T01:06:20;17.20;99.90
35970;DHT22;22448;51.298;6.430;2023-08-17T01:08:47;17.20;99.90
35970;DHT22;22448;51.298;6.430;2023-08-17T01:11:36;17.20;99.90
35970;DHT22;22448;51.298;6.430;2023-08-17T01:14:19;17.20;99.90
35970;DHT22;22448;51.298;6.430;2023-08-17T01:16:54;17.20;99.90
35970;DHT22;22448;51.298;6.430;2023-08-17T01:19:26;17.20;99.90
35970;DHT22;22448;51.298;6.430;2023-08-17T01:22:03;17.20;99.90
35970;DHT22;22448;51.298;6.430;2023-08-17T01:24:32;17.20;99.90
35970;DHT22;22448;51.298;6.430;2023-08-17T01:26:59;17.20;99.90
35970;DHT22;22448;51.298;6.430;2023-08-17T01:29:26;17.20;99.90
35970;DHT22;22448;51.298;6.430;2023-08-17T01:35:04;17.10;99.90
35970;DHT22;22448;51.298;6.430;2023-08-17T01:37:38;17.10;99.90
35970;DHT22;22448;51.298;6.430;2023-08-17T01:40:06;17.10;99.90
35970;DHT22;22448;51.298;6.430;2023-08-17T01:42:35;17.20;99.90
35970;DHT22;22448;51.298;6.430;2023-08-17T01:45:03;17.10;99.90
35970;DHT22;22448;51.298;6.430;2023-08-17T01:47:30;17.10;99.90
35970;DHT22;22448;51.298;6.430;2023-08-17T01:49:57;17.20;99.90
35970;DHT22;22448;51.298;6.430;2023-08-17T01:52:27;17.20;99.90
35970;DHT22;22448;51.298;6.430;2023-08-17T01:54:55;17.10;99.90
35970;DHT22;22448;51.298;6.430;2023-08-17T01:57:22;17.10;99.90
35970;DHT22;22448;51.298;6.430;2023-08-17T01:59:49;17.10;99.90
35970;DHT22;22448;51.298;6.430;2023-08-17T02:02:16;17.20;99.90
35970;DHT22;22448;51.298;6.430;2023-08-17T02:04:44;17.10;99.90
35970;DHT22;22448;51.298;6.430;2023-08-17T02:07:11;17.20;99.90
35970;DHT22;22448;51.298;6.430;2023-08-17T02:09:38;17.10;99.90
35970;DHT22;22448;51.298;6.430;2023-08-17T02:12:06;17.10;99.90
35970;DHT22;22448;51.298;6.430;2023-08-17T02:14:33;17.10;99.90
35970;DHT22;22448;51.298;6.430;2023-08-17T02:17:00;17.10;99.90
35970;DHT22;22448;51.298;6.430;2023-08-17T02:19:27;17.10;99.90
35970;DHT22;22448;51.298;6.430;2023-08-17T02:21:54;17.10;99.90
35970;DHT22;22448;51.298;6.430;2023-08-17T02:24:21;17.00;99.90
35970;DHT22;22448;51.298;6.430;2023-08-17T02:26:52;17.00;99.90
35970;DHT22;22448;51.298;6.430;2023-08-17T02:29:19;16.90;99.90
35970;DHT22;22448;51.298;6.430;2023-08-17T02:31:46;16.90;99.90
35970;DHT22;22448;51.298;6.430;2023-08-17T02:34:13;16.90;99.90
35970;DHT22;22448;51.298;6.430;2023-08-17T02:36:41;16.80;99.90
35970;DHT22;22448;51.298;6.430;2023-08-17T02:39:08;16.80;99.90
35970;DHT22;22448;51.298;6.430;2023-08-17T02:41:35;16.80;99.90
35970;DHT22;22448;51.298;6.430;2023-08-17T02:44:02;16.80;99.90
35970;DHT22;22448;51.298;6.430;2023-08-17T02:46:29;16.80;99.90
35970;DHT22;22448;51.298;6.430;2023-08-17T02:48:57;16.80;99.90
35970;DHT22;22448;51.298;6.430;2023-08-17T02:51:24;16.70;99.90
35970;DHT22;22448;51.298;6.430;2023-08-17T02:53:51;16.70;99.90
35970;DHT22;22448;51.298;6.430;2023-08-17T02:56:18;16.70;99.90
35970;DHT22;22448;51.298;6.430;2023-08-17T02:58:47;16.70;99.90
35970;DHT22;22448;51.298;6.430;2023-08-17T03:01:15;16.70;99.90
35970;DHT22;22448;51.298;6.430;2023-08-17T03:03:43;16.70;99.90
35970;DHT22;22448;51.298;6.430;2023-08-17T03:06:11;16.70;99.90
35970;DHT22;22448;51.298;6.430;2023-08-17T03:08:39;16.70;99.90
35970;DHT22;22448;51.298;6.430;2023-08-17T03:11:06;16.70;99.90
35970;DHT22;22448;51.298;6.430;2023-08-17T03:13:34;16.70;99.90
35970;DHT22;22448;51.298;6.430;2023-08-17T03:16:01;16.70;99.90
35970;DHT22;22448;51.298;6.430;2023-08-17T03:18:29;16.70;99.90
35970;DHT22;22448;51.298;6.430;2023-08-17T03:20:56;16.60;99.90
35970;DHT22;22448;51.298;6.430;2023-08-17T03:23:24;16.60;99.90
35970;DHT22;22448;51.298;6.430;2023-08-17T03:25:53;16.60;99.90
35970;DHT22;22448;51.298;6.430;2023-08-17T03:28:20;16.60;99.90
35970;DHT22;22448;51.298;6.430;2023-08-17T03:30:47;16.60;99.90
35970;DHT22;22448;51.298;6.430;2023-08-17T03:33:14;16.50;99.90
35970;DHT22;22448;51.298;6.430;2023-08-17T03:35:42;16.50;99.90
35970;DHT22;22448;51.298;6.430;2023-08-17T03:38:09;16.50;99.90
35970;DHT22;22448;51.298;6.430;2023-08-17T03:40:36;16.40;99.90
35970;DHT22;22448;51.298;6.430;2023-08-17T03:43:03;16.50;99.90
35970;DHT22;22448;51.298;6.430;2023-08-17T03:45:31;16.40;99.90
35970;DHT22;22448;51.298;6.430;2023-08-17T03:47:58;16.40;99.90
35970;DHT22;22448;51.298;6.430;2023-08-17T03:50:27;16.40;99.90
35970;DHT22;22448;51.298;6.430;2023-08-17T03:52:54;16.30;99.90
35970;DHT22;22448;51.298;6.430;2023-08-17T03:55:21;16.40;99.90
35970;DHT22;22448;51.298;6.430;2023-08-17T03:57:48;16.30;99.90
35970;DHT22;22448;51.298;6.430;2023-08-17T04:00:15;16.30;99.90
35970;DHT22;22448;51.298;6.430;2023-08-17T04:02:43;16.30;99.90
35970;DHT22;22448;51.298;6.430;2023-08-17T04:05:15;16.30;99.90
35970;DHT22;22448;51.298;6.430;2023-08-17T04:07:42;16.30;99.90
35970;DHT22;22448;51.298;6.430;2023-08-17T04:10:09;16.30;99.90
35970;DHT22;22448;51.298;6.430;2023-08-17T04:12:36;16.30;99.90
35970;DHT22;22448;51.298;6.430;2023-08-17T04:15:03;16.30;99.90
35970;DHT22;22448;51.298;6.430;2023-08-17T04:17:31;16.30;99.90
35970;DHT22;22448;51.298;6.430;2023-08-17T04:19:58;16.30;99.90
35970;DHT22;22448;51.298;6.430;2023-08-17T04:22:26;16.30;99.90
35970;DHT22;22448;51.298;6.430;2023-08-17T04:24:53;16.30;99.90
35970;DHT22;22448;51.298;6.430;2023-08-17T04:27:21;16.30;99.90
35970;DHT22;22448;51.298;6.430;2023-08-17T04:29:48;16.20;99.90
35970;DHT22;22448;51.298;6.430;2023-08-17T04:32:16;16.20;99.90
35970;DHT22;22448;51.298;6.430;2023-08-17T04:34:44;16.20;99.90
35970;DHT22;22448;51.298;6.430;2023-08-17T04:37:14;16.20;99.90
35970;DHT22;22448;51.298;6.430;2023-08-17T04:39:41;16.20;99.90
35970;DHT22;22448;51.298;6.430;2023-08-17T04:42:15;16.20;99.90
35970;DHT22;22448;51.298;6.430;2023-08-17T04:44:43;16.20;99.90
35970;DHT22;22448;51.298;6.430;2023-08-17T04:47:10;16.20;99.90
35970;DHT22;22448;51.298;6.430;2023-08-17T04:49:38;16.20;99.90
35970;DHT22;22448;51.298;6.430;2023-08-17T04:52:05;16.20;99.90
35970;DHT22;22448;51.298;6.430;2023-08-17T04:54:33;16.20;99.90
35970;DHT22;22448;51.298;6.430;2023-08-17T04:57:00;16.20;99.90
35970;DHT22;22448;51.298;6.430;2023-08-17T04:59:28;16.20;99.90
35970;DHT22;22448;51.298;6.430;2023-08-17T05:01:55;16.20;99.90
35970;DHT22;22448;51.298;6.430;2023-08-17T05:04:22;16.20;99.90
35970;DHT22;22448;51.298;6.430;2023-08-17T05:06:49;16.20;99.90
35970;DHT22;22448;51.298;6.430;2023-08-17T05:09:16;16.20;99.90
35970;DHT22;22448;51.298;6.430;2023-08-17T05:11:43;16.30;99.90
35970;DHT22;22448;51.298;6.430;2023-08-17T05:14:10;16.30;99.90
35970;DHT22;22448;51.298;6.430;2023-08-17T05:16:37;16.30;99.90
35970;DHT22;22448;51.298;6.430;2023-08-17T05:19:05;16.30;99.90
35970;DHT22;22448;51.298;6.430;2023-08-17T05:21:32;16.30;99.90
35970;DHT22;22448;51.298;6.430;2023-08-17T05:23:59;16.30;99.90
35970;DHT22;22448;51.298;6.430;2023-08-17T05:26:26;16.40;99.90
35970;DHT22;22448;51.298;6.430;2023-08-17T05:28:53;16.30;99.90
35970;DHT22;22448;51.298;6.430;2023-08-17T05:31:23;16.30;99.90
35970;DHT22;22448;51.298;6.430;2023-08-17T05:33:51;16.40;99.90
35970;DHT22;22448;51.298;6.430;2023-08-17T05:36:20;16.40;99.90
35970;DHT22;22448;51.298;6.430;2023-08-17T05:38:47;16.40;99.90
35970;DHT22;22448;51.298;6.430;2023-08-17T05:41:14;16.40;99.90
35970;DHT22;22448;51.298;6.430;2023-08-17T05:43:43;16.50;99.90
35970;DHT22;22448;51.298;6.430;2023-08-17T05:46:11;16.50;99.90
35970;DHT22;22448;51.298;6.430;2023-08-17T05:48:39;16.50;99.90
35970;DHT22;22448;51.298;6.430;2023-08-17T05:51:06;16.50;99.90
35970;DHT22;22448;51.298;6.430;2023-08-17T05:53:33;16.50;99.90
35970;DHT22;22448;51.298;6.430;2023-08-17T05:56:00;16.50;99.90
35970;DHT22;22448;51.298;6.430;2023-08-17T05:58:27;16.60;99.90
35970;DHT22;22448;51.298;6.430;2023-08-17T06:00:54;16.60;99.90
35970;DHT22;22448;51.298;6.430;2023-08-17T06:03:21;16.60;99.90
35970;DHT22;22448;51.298;6.430;2023-08-17T06:05:52;16.60;99.90
35970;DHT22;22448;51.298;6.430;2023-08-17T06:08:19;16.60;99.90
35970;DHT22;22448;51.298;6.430;2023-08-17T06:10:46;16.70;99.90
35970;DHT22;22448;51.298;6.430;2023-08-17T06:13:13;16.70;99.90
35970;DHT22;22448;51.298;6.430;2023-08-17T06:15:40;16.80;99.90
35970;DHT22;22448;51.298;6.430;2023-08-17T06:18:07;16.80;99.90
35970;DHT22;22448;51.298;6.430;2023-08-17T06:20:35;16.90;99.90
35970;DHT22;22448;51.298;6.430;2023-08-17T06:23:02;16.90;99.90
35970;DHT22;22448;51.298;6.430;2023-08-17T06:25:29;16.90;99.90
35970;DHT22;22448;51.298;6.430;2023-08-17T06:27:56;17.00;99.90
35970;DHT22;22448;51.298;6.430;2023-08-17T06:30:23;17.00;99.90
35970;DHT22;22448;51.298;6.430;2023-08-17T06:32:51;17.10;99.90
35970;DHT22;22448;51.298;6.430;2023-08-17T06:35:18;17.10;99.90
35970;DHT22;22448;51.298;6.430;2023-08-17T06:37:46;17.10;99.90
35970;DHT22;22448;51.298;6.430;2023-08-17T06:40:13;17.10;99.90
35970;DHT22;22448;51.298;6.430;2023-08-17T06:42:40;17.10;99.90
35970;DHT22;22448;51.298;6.430;2023-08-17T06:45:07;17.10;99.90
35970;DHT22;22448;51.298;6.430;2023-08-17T06:47:34;17.10;99.90
35970;DHT22;22448;51.298;6.430;2023-08-17T06:50:02;17.10;99.90
35970;DHT22;22448;51.298;6.430;2023-08-17T06:52:30;17.10;99.90
35970;DHT22;22448;51.298;6.430;2023-08-17T06:54:57;17.20;99.90
35970;DHT22;22448;51.298;6.430;2023-08-17T06:57:24;17.10;99.90
35970;DHT22;22448;51.298;6.430;2023-08-17T06:59:51;17.10;99.90
35970;DHT22;22448;51.298;6.430;2023-08-17T07:02:20;17.10;99.90
35970;DHT22;22448;51.298;6.430;2023-08-17T07:04:47;17.20;99.90
35970;DHT22;22448;51.298;6.430;2023-08-17T07:07:14;17.10;99.90
35970;DHT22;22448;51.298;6.430;2023-08-17T07:09:41;17.20;99.90
35970;DHT22;22448;51.298;6.430;2023-08-17T07:12:08;17.20;99.90
35970;DHT22;22448;51.298;6.430;2023-08-17T07:14:35;17.30;99.90
35970;DHT22;22448;51.298;6.430;2023-08-17T07:17:03;17.30;99.90
35970;DHT22;22448;51.298;6.430;2023-08-17T07:19:31;17.30;99.90
35970;DHT22;22448;51.298;6.430;2023-08-17T07:22:12;17.30;99.90
35970;DHT22;22448;51.298;6.430;2023-08-17T07:24:39;17.30;99.90
35970;DHT22;22448;51.298;6.430;2023-08-17T07:27:06;17.40;99.90
35970;DHT22;22448;51.298;6.430;2023-08-17T07:29:33;17.40;99.90
35970;DHT22;22448;51.298;6.430;2023-08-17T07:32:01;17.50;99.90
35970;DHT22;22448;51.298;6.430;2023-08-17T07:34:29;17.50;99.90
35970;DHT22;22448;51.298;6.430;2023-08-17T07:36:58;17.50;99.90
35970;DHT22;22448;51.298;6.430;2023-08-17T07:39:25;17.50;99.90
35970;DHT22;22448;51.298;6.430;2023-08-17T07:41:52;17.60;99.90
35970;DHT22;22448;51.298;6.430;2023-08-17T07:44:19;17.60;99.90
35970;DHT22;22448;51.298;6.430;2023-08-17T07:46:46;17.60;99.90
35970;DHT22;22448;51.298;6.430;2023-08-17T07:49:13;17.70;99.90
35970;DHT22;22448;51.298;6.430;2023-08-17T07:51:57;17.60;99.90
35970;DHT22;22448;51.298;6.430;2023-08-17T07:54:24;17.70;99.90
35970;DHT22;22448;51.298;6.430;2023-08-17T07:57:10;17.80;99.90
35970;DHT22;22448;51.298;6.430;2023-08-17T07:59:37;17.80;99.90
35970;DHT22;22448;51.298;6.430;2023-08-17T08:02:04;17.80;99.90
35970;DHT22;22448;51.298;6.430;2023-08-17T08:04:31;17.80;99.90
35970;DHT22;22448;51.298;6.430;2023-08-17T08:06:58;17.90;99.90
35970;DHT22;22448;51.298;6.430;2023-08-17T08:09:25;18.00;99.90
35970;DHT22;22448;51.298;6.430;2023-08-17T08:11:52;18.00;99.90
35970;DHT22;22448;51.298;6.430;2023-08-17T08:14:19;18.00;99.90
35970;DHT22;22448;51.298;6.430;2023-08-17T08:16:46;18.00;99.90
35970;DHT22;22448;51.298;6.430;2023-08-17T08:19:13;18.00;99.90
35970;DHT22;22448;51.298;6.430;2023-08-17T08:21:41;18.10;99.90
35970;DHT22;22448;51.298;6.430;2023-08-17T08:24:08;18.20;99.90
35970;DHT22;22448;51.298;6.430;2023-08-17T08:26:44;18.20;99.90
35970;DHT22;22448;51.298;6.430;2023-08-17T08:29:11;18.30;99.90
35970;DHT22;22448;51.298;6.430;2023-08-17T08:31:38;18.30;99.90
35970;DHT22;22448;51.298;6.430;2023-08-17T08:34:05;18.30;99.90
35970;DHT22;22448;51.298;6.430;2023-08-17T08:36:32;18.40;99.90
35970;DHT22;22448;51.298;6.430;2023-08-17T08:38:59;18.50;99.90
35970;DHT22;22448;51.298;6.430;2023-08-17T08:41:27;18.50;99.90
35970;DHT22;22448;51.298;6.430;2023-08-17T08:43:56;18.50;99.90
35970;DHT22;22448;51.298;6.430;2023-08-17T08:46:26;18.50;99.90
35970;DHT22;22448;51.298;6.430;2023-08-17T08:48:56;18.50;99.90
35970;DHT22;22448;51.298;6.430;2023-08-17T08:51:27;18.40;99.90
35970;DHT22;22448;51.298;6.430;2023-08-17T08:54:02;18.40;99.90
35970;DHT22;22448;51.298;6.430;2023-08-17T08:56:33;18.40;99.90
35970;DHT22;22448;51.298;6.430;2023-08-17T08:59:02;18.50;99.90
35970;DHT22;22448;51.298;6.430;2023-08-17T09:01:32;18.50;99.90
35970;DHT22;22448;51.298;6.430;2023-08-17T09:04:00;18.50;99.90
35970;DHT22;22448;51.298;6.430;2023-08-17T09:06:29;18.50;99.90
35970;DHT22;22448;51.298;6.430;2023-08-17T09:08:57;18.40;99.90
35970;DHT22;22448;51.298;6.430;2023-08-17T09:11:24;18.40;99.90
35970;DHT22;22448;51.298;6.430;2023-08-17T09:13:53;18.40;99.90
35970;DHT22;22448;51.298;6.430;2023-08-17T09:16:20;18.40;99.90
35970;DHT22;22448;51.298;6.430;2023-08-17T09:18:53;18.40;99.90
35970;DHT22;22448;51.298;6.430;2023-08-17T09:21:22;18.40;99.90
35970;DHT22;22448;51.298;6.430;2023-08-17T09:23:56;18.30;99.90
35970;DHT22;22448;51.298;6.430;2023-08-17T09:26:30;18.40;99.90
35970;DHT22;22448;51.298;6.430;2023-08-17T09:28:59;18.50;99.90
35970;DHT22;22448;51.298;6.430;2023-08-17T09:31:26;18.60;99.90
35970;DHT22;22448;51.298;6.430;2023-08-17T09:33:57;18.70;99.90
35970;DHT22;22448;51.298;6.430;2023-08-17T09:36:25;18.70;99.90
35970;DHT22;22448;51.298;6.430;2023-08-17T09:38:52;18.80;99.90
35970;DHT22;22448;51.298;6.430;2023-08-17T09:41:19;18.70;99.90
35970;DHT22;22448;51.298;6.430;2023-08-17T09:43:46;18.70;99.90
35970;DHT22;22448;51.298;6.430;2023-08-17T09:46:14;18.70;99.90
35970;DHT22;22448;51.298;6.430;2023-08-17T09:48:43;18.60;99.90
35970;DHT22;22448;51.298;6.430;2023-08-17T09:51:15;18.60;99.90
35970;DHT22;22448;51.298;6.430;2023-08-17T09:53:43;18.60;99.90
35970;DHT22;22448;51.298;6.430;2023-08-17T09:56:10;18.60;99.90
35970;DHT22;22448;51.298;6.430;2023-08-17T09:58:41;18.70;99.90
35970;DHT22;22448;51.298;6.430;2023-08-17T10:01:09;18.70;99.90
35970;DHT22;22448;51.298;6.430;2023-08-17T10:03:39;18.70;99.90
35970;DHT22;22448;51.298;6.430;2023-08-17T10:06:12;18.70;99.90
35970;DHT22;22448;51.298;6.430;2023-08-17T10:08:44;18.70;99.90
35970;DHT22;22448;51.298;6.430;2023-08-17T10:11:13;18.70;99.90
35970;DHT22;22448;51.298;6.430;2023-08-17T10:14:01;18.70;99.90
35970;DHT22;22448;51.298;6.430;2023-08-17T10:16:35;18.70;99.90
35970;DHT22;22448;51.298;6.430;2023-08-17T10:19:32;18.70;99.90
35970;DHT22;22448;51.298;6.430;2023-08-17T10:22:23;18.70;99.90
35970;DHT22;22448;51.298;6.430;2023-08-17T10:24:54;18.70;99.90
35970;DHT22;22448;51.298;6.430;2023-08-17T10:27:21;18.80;99.90
35970;DHT22;22448;51.298;6.430;2023-08-17T10:29:50;18.90;99.90
35970;DHT22;22448;51.298;6.430;2023-08-17T10:32:20;19.00;99.90
35970;DHT22;22448;51.298;6.430;2023-08-17T10:34:49;19.10;99.90
35970;DHT22;22448;51.298;6.430;2023-08-17T10:37:17;19.20;99.90
35970;DHT22;22448;51.298;6.430;2023-08-17T10:39:46;19.20;99.90
35970;DHT22;22448;51.298;6.430;2023-08-17T10:42:14;19.10;99.90
35970;DHT22;22448;51.298;6.430;2023-08-17T10:44:49;19.00;99.90
35970;DHT22;22448;51.298;6.430;2023-08-17T10:47:28;19.10;99.90
35970;DHT22;22448;51.298;6.430;2023-08-17T10:50:06;19.10;99.90
35970;DHT22;22448;51.298;6.430;2023-08-17T10:52:37;19.10;99.90
35970;DHT22;22448;51.298;6.430;2023-08-17T10:55:08;19.20;99.90
35970;DHT22;22448;51.298;6.430;2023-08-17T10:57:39;19.10;99.90
35970;DHT22;22448;51.298;6.430;2023-08-17T11:03:03;19.20;99.90
35970;DHT22;22448;51.298;6.430;2023-08-17T11:08:19;19.40;99.90
35970;DHT22;22448;51.298;6.430;2023-08-17T11:11:04;19.40;99.90
35970;DHT22;22448;51.298;6.430;2023-08-17T11:13:36;19.50;99.90
35970;DHT22;22448;51.298;6.430;2023-08-17T11:16:05;19.50;99.90
35970;DHT22;22448;51.298;6.430;2023-08-17T11:18:33;19.60;99.90
35970;DHT22;22448;51.298;6.430;2023-08-17T11:21:02;19.60;99.90
35970;DHT22;22448;51.298;6.430;2023-08-17T11:23:31;19.60;99.90
35970;DHT22;22448;51.298;6.430;2023-08-17T11:25:59;19.60;99.90
35970;DHT22;22448;51.298;6.430;2023-08-17T11:28:30;19.50;99.90
35970;DHT22;22448;51.298;6.430;2023-08-17T11:31:09;19.50;99.90
35970;DHT22;22448;51.298;6.430;2023-08-17T11:33:38;19.40;99.90
35970;DHT22;22448;51.298;6.430;2023-08-17T11:36:07;19.40;99.90
35970;DHT22;22448;51.298;6.430;2023-08-17T11:38:37;19.40;99.90
35970;DHT22;22448;51.298;6.430;2023-08-17T11:41:05;19.50;99.90
35970;DHT22;22448;51.298;6.430;2023-08-17T11:43:35;19.60;99.90
35970;DHT22;22448;51.298;6.430;2023-08-17T11:46:02;19.70;99.90
35970;DHT22;22448;51.298;6.430;2023-08-17T11:48:30;19.80;99.90
35970;DHT22;22448;51.298;6.430;2023-08-17T11:51:01;19.90;99.90
35970;DHT22;22448;51.298;6.430;2023-08-17T11:53:35;20.00;99.90
35970;DHT22;22448;51.298;6.430;2023-08-17T11:56:02;20.10;99.90
35970;DHT22;22448;51.298;6.430;2023-08-17T11:58:47;20.20;99.90
35970;DHT22;22448;51.298;6.430;2023-08-17T12:01:15;20.30;99.90
35970;DHT22;22448;51.298;6.430;2023-08-17T12:03:45;20.40;99.90
35970;DHT22;22448;51.298;6.430;2023-08-17T12:06:16;20.50;99.90
35970;DHT22;22448;51.298;6.430;2023-08-17T12:08:45;20.60;99.90
35970;DHT22;22448;51.298;6.430;2023-08-17T12:11:15;20.70;99.90
35970;DHT22;22448;51.298;6.430;2023-08-17T12:13:43;20.70;99.90
35970;DHT22;22448;51.298;6.430;2023-08-17T12:16:16;20.80;99.90
35970;DHT22;22448;51.298;6.430;2023-08-17T12:18:50;20.90;99.90
35970;DHT22;22448;51.298;6.430;2023-08-17T12:21:22;20.90;99.90
35970;DHT22;22448;51.298;6.430;2023-08-17T12:23:50;20.80;99.90
35970;DHT22;22448;51.298;6.430;2023-08-17T12:26:21;20.80;99.90
35970;DHT22;22448;51.298;6.430;2023-08-17T12:28:49;20.80;99.90
35970;DHT22;22448;51.298;6.430;2023-08-17T12:31:21;20.80;99.90
35970;DHT22;22448;51.298;6.430;2023-08-17T12:33:50;20.90;99.90
35970;DHT22;22448;51.298;6.430;2023-08-17T12:36:17;21.00;99.90
35970;DHT22;22448;51.298;6.430;2023-08-17T12:38:45;21.10;99.90
35970;DHT22;22448;51.298;6.430;2023-08-17T12:41:15;21.10;99.90
35970;DHT22;22448;51.298;6.430;2023-08-17T12:43:42;21.00;99.90
35970;DHT22;22448;51.298;6.430;2023-08-17T12:46:09;20.90;99.90
35970;DHT22;22448;51.298;6.430;2023-08-17T12:48:41;20.80;99.90
35970;DHT22;22448;51.298;6.430;2023-08-17T12:51:08;20.80;99.90
35970;DHT22;22448;51.298;6.430;2023-08-17T12:53:35;20.70;99.90
35970;DHT22;22448;51.298;6.430;2023-08-17T12:56:02;20.70;99.90
35970;DHT22;22448;51.298;6.430;2023-08-17T12:58:29;20.70;99.90
35970;DHT22;22448;51.298;6.430;2023-08-17T13:00:56;20.70;99.90
35970;DHT22;22448;51.298;6.430;2023-08-17T13:03:23;20.70;99.90
35970;DHT22;22448;51.298;6.430;2023-08-17T13:05:50;20.60;99.90
35970;DHT22;22448;51.298;6.430;2023-08-17T13:08:17;20.70;99.90
35970;DHT22;22448;51.298;6.430;2023-08-17T13:10:44;20.70;99.90
35970;DHT22;22448;51.298;6.430;2023-08-17T13:13:12;20.80;99.90
35970;DHT22;22448;51.298;6.430;2023-08-17T13:15:38;20.80;99.90
35970;DHT22;22448;51.298;6.430;2023-08-17T13:18:05;20.80;99.90
35970;DHT22;22448;51.298;6.430;2023-08-17T13:20:32;20.70;99.90
35970;DHT22;22448;51.298;6.430;2023-08-17T13:22:59;20.60;99.90
35970;DHT22;22448;51.298;6.430;2023-08-17T13:25:26;20.60;99.90
35970;DHT22;22448;51.298;6.430;2023-08-17T13:27:53;20.60;99.90
35970;DHT22;22448;51.298;6.430;2023-08-17T13:30:20;20.50;99.90
35970;DHT22;22448;51.298;6.430;2023-08-17T13:32:47;20.40;99.90
35970;DHT22;22448;51.298;6.430;2023-08-17T13:35:14;20.30;99.90
35970;DHT22;22448;51.298;6.430;2023-08-17T13:37:41;20.30;99.90
35970;DHT22;22448;51.298;6.430;2023-08-17T13:40:09;20.20;99.90
35970;DHT22;22448;51.298;6.430;2023-08-17T13:42:37;20.30;99.90
35970;DHT22;22448;51.298;6.430;2023-08-17T13:45:04;20.20;99.90
35970;DHT22;22448;51.298;6.430;2023-08-17T13:47:31;20.20;99.90
35970;DHT22;22448;51.298;6.430;2023-08-17T13:49:58;20.20;99.90
35970;DHT22;22448;51.298;6.430;2023-08-17T13:52:25;20.30;99.90
35970;DHT22;22448;51.298;6.430;2023-08-17T13:54:53;20.30;99.90
35970;DHT22;22448;51.298;6.430;2023-08-17T13:57:20;20.30;99.90
35970;DHT22;22448;51.298;6.430;2023-08-17T13:59:47;20.30;99.90
35970;DHT22;22448;51.298;6.430;2023-08-17T14:02:14;20.30;99.90
35970;DHT22;22448;51.298;6.430;2023-08-17T14:04:41;20.30;99.90
35970;DHT22;22448;51.298;6.430;2023-08-17T14:07:08;20.30;99.90
35970;DHT22;22448;51.298;6.430;2023-08-17T14:09:34;20.30;99.90
35970;DHT22;22448;51.298;6.430;2023-08-17T14:12:01;20.30;99.90
35970;DHT22;22448;51.298;6.430;2023-08-17T14:14:29;20.40;99.90
35970;DHT22;22448;51.298;6.430;2023-08-17T14:16:56;20.40;99.90
35970;DHT22;22448;51.298;6.430;2023-08-17T14:19:24;20.50;99.90
35970;DHT22;22448;51.298;6.430;2023-08-17T14:21:51;20.50;99.90
35970;DHT22;22448;51.298;6.430;2023-08-17T14:24:19;20.60;99.90
35970;DHT22;22448;51.298;6.430;2023-08-17T14:26:46;20.60;99.90
35970;DHT22;22448;51.298;6.430;2023-08-17T14:29:13;20.60;99.90
35970;DHT22;22448;51.298;6.430;2023-08-17T14:31:40;20.50;99.90
35970;DHT22;22448;51.298;6.430;2023-08-17T14:34:07;20.50;99.90
35970;DHT22;22448;51.298;6.430;2023-08-17T14:36:34;20.50;99.90
35970;DHT22;22448;51.298;6.430;2023-08-17T14:39:01;20.40;99.90
35970;DHT22;22448;51.298;6.430;2023-08-17T14:41:28;20.40;99.90
35970;DHT22;22448;51.298;6.430;2023-08-17T14:43:59;20.40;99.90
35970;DHT22;22448;51.298;6.430;2023-08-17T14:46:29;20.40;99.90
35970;DHT22;22448;51.298;6.430;2023-08-17T14:48:56;20.50;99.90
35970;DHT22;22448;51.298;6.430;2023-08-17T14:51:24;20.50;99.90
35970;DHT22;22448;51.298;6.430;2023-08-17T14:53:57;20.50;99.90
35970;DHT22;22448;51.298;6.430;2023-08-17T14:56:24;20.50;99.90
35970;DHT22;22448;51.298;6.430;2023-08-17T14:58:51;20.60;99.90
35970;DHT22;22448;51.298;6.430;2023-08-17T15:01:18;20.80;99.90
35970;DHT22;22448;51.298;6.430;2023-08-17T15:03:45;20.80;99.90
35970;DHT22;22448;51.298;6.430;2023-08-17T15:06:14;20.90;99.90
35970;DHT22;22448;51.298;6.430;2023-08-17T15:08:59;21.00;99.90
35970;DHT22;22448;51.298;6.430;2023-08-17T15:11:26;21.00;99.90
35970;DHT22;22448;51.298;6.430;2023-08-17T15:13:53;21.10;99.90
35970;DHT22;22448;51.298;6.430;2023-08-17T15:16:20;21.10;99.90
35970;DHT22;22448;51.298;6.430;2023-08-17T15:18:53;21.10;99.90
35970;DHT22;22448;51.298;6.430;2023-08-17T15:21:20;21.10;99.90
35970;DHT22;22448;51.298;6.430;2023-08-17T15:23:47;21.10;99.90
35970;DHT22;22448;51.298;6.430;2023-08-17T15:26:14;21.00;99.90
35970;DHT22;22448;51.298;6.430;2023-08-17T15:28:41;21.10;99.90
35970;DHT22;22448;51.298;6.430;2023-08-17T15:31:08;21.10;99.90
35970;DHT22;22448;51.298;6.430;2023-08-17T15:33:43;21.00;99.90
35970;DHT22;22448;51.298;6.430;2023-08-17T15:36:10;21.00;99.90
35970;DHT22;22448;51.298;6.430;2023-08-17T15:38:37;20.90;99.90
35970;DHT22;22448;51.298;6.430;2023-08-17T15:41:05;20.90;99.90
35970;DHT22;22448;51.298;6.430;2023-08-17T15:43:32;20.80;99.90
35970;DHT22;22448;51.298;6.430;2023-08-17T15:45:59;20.70;99.90